Time;durP1;ratioP1;P1;durP2;ratioP2;P2;SDS_P1;SDS_P2;PMS_P1;PMS_P2;Temp;Humidity;BMP_temperature;BMP_pressure;BME280_temperature;BME280_humidity;BME280_pressure;Samples;Min_cycle;Max_cycle;Signal;HPM_P1;HPM_P2
2023/10/07 00:01:45;;;;;;;19.02;5.75;;;;;;;;;;5084254;28;20044;-78
2023/10/07 00:04:13;;;;;;;19.85;6.38;;;;;;;;;;5088044;28;20728;-78
2023/10/07 00:06:39;;;;;;;19.25;6.28;;;;;;;;;;5074483;28;20119;-78
2023/10/07 00:09:10;;;;;;;18.33;5.63;;;;;;;;;;5090004;28;20148;-78
2023/10/07 00:11:36;;;;;;;17.25;6.18;;;;;;;;;;5056045;28;20064;-78
2023/10/07 00:14:03;;;;;;;16.63;5.57;;;;;;;;;;5088514;28;20434;-78
2023/10/07 00:16:29;;;;;;;18.75;5.53;;;;;;;;;;5068853;28;20055;-78
2023/10/07 00:18:55;;;;;;;14.15;5.70;;;;;;;;;;5100585;28;20075;-78
2023/10/07 00:21:39;;;;;;;16.67;5.20;;;;;;;;;;5085239;28;20104;-78
2023/10/07 00:24:06;;;;;;;19.27;5.32;;;;;;;;;;5085529;28;20391;-78
2023/10/07 00:26:33;;;;;;;22.00;6.38;;;;;;;;;;5088758;28;20051;-78
2023/10/07 00:29:00;;;;;;;15.40;5.38;;;;;;;;;;5089598;28;20048;-78
2023/10/07 00:31:27;;;;;;;12.52;4.25;;;;;;;;;;5102993;28;20044;-78
2023/10/07 00:34:05;;;;;;;19.73;5.85;;;;;;;;;;5095502;28;20090;-78
2023/10/07 00:39:00;;;;;;;21.90;6.50;;;;;;;;;;5092458;28;20095;-79
2023/10/07 00:41:31;;;;;;;19.85;5.80;;;;;;;;;;5098871;28;20040;-79
2023/10/07 00:44:07;;;;;;;17.95;5.97;;;;;;;;;;5095294;28;20072;-80
2023/10/07 00:46:34;;;;;;;24.58;6.18;;;;;;;;;;5100295;28;20040;-79
2023/10/07 00:49:09;;;;;;;15.32;6.18;;;;;;;;;;5097000;28;20371;-78
2023/10/07 00:51:45;;;;;;;22.98;5.72;;;;;;;;;;5109772;28;20048;-78
2023/10/07 00:54:51;;;;;;;18.13;5.70;;;;;;;;;;5081673;28;20062;-78
2023/10/07 00:57:10;;;;;;;19.65;5.70;;;;;;;;;;5090987;28;20549;-78
2023/10/07 00:59:40;;;;;;;22.85;6.07;;;;;;;;;;5083945;28;20048;-79
2023/10/07 01:02:09;;;;;;;18.23;5.88;;;;;;;;;;5095148;28;20043;-79
2023/10/07 01:04:40;;;;;;;16.05;5.88;;;;;;;;;;5075629;28;20044;-78
2023/10/07 01:07:06;;;;;;;17.98;5.55;;;;;;;;;;5072762;28;20058;-78
2023/10/07 01:09:32;;;;;;;14.35;6.22;;;;;;;;;;5068589;28;20105;-78
2023/10/07 01:11:59;;;;;;;15.25;5.68;;;;;;;;;;5071541;28;20051;-78
2023/10/07 01:14:33;;;;;;;16.98;6.35;;;;;;;;;;5106607;28;20130;-78
2023/10/07 01:17:00;;;;;;;20.88;5.15;;;;;;;;;;5096947;28;20050;-78
2023/10/07 01:19:35;;;;;;;13.63;5.43;;;;;;;;;;5090589;28;20049;-78
2023/10/07 01:22:09;;;;;;;18.58;5.53;;;;;;;;;;5076687;28;20055;-78
2023/10/07 01:27:19;;;;;;;22.67;5.60;;;;;;;;;;5089296;28;20055;-78
2023/10/07 01:29:49;;;;;;;15.13;5.32;;;;;;;;;;5083644;28;20039;-78
2023/10/07 01:32:16;;;;;;;15.82;5.18;;;;;;;;;;5066898;28;20059;-78
2023/10/07 01:34:50;;;;;;;18.75;5.65;;;;;;;;;;5090173;28;20043;-78
2023/10/07 01:37:21;;;;;;;16.70;5.05;;;;;;;;;;5068349;28;20394;-79
2023/10/07 01:39:49;;;;;;;13.00;4.43;;;;;;;;;;5103129;28;20371;-78
2023/10/07 01:42:37;;;;;;;15.30;4.10;;;;;;;;;;5098810;28;20044;-78
2023/10/07 01:45:22;;;;;;;14.93;6.00;;;;;;;;;;5070873;28;20051;-78
2023/10/07 01:47:55;;;;;;;19.38;6.13;;;;;;;;;;5103237;28;20452;-78
2023/10/07 01:50:23;;;;;;;15.80;5.45;;;;;;;;;;5099408;28;20051;-78
2023/10/07 01:52:52;;;;;;;16.65;5.53;;;;;;;;;;5076809;28;20043;-79
2023/10/07 01:55:19;;;;;;;21.20;5.80;;;;;;;;;;5059732;28;20040;-78
2023/10/07 01:57:48;;;;;;;19.95;6.03;;;;;;;;;;5068906;28;20048;-78
2023/10/07 02:00:36;;;;;;;18.70;6.22;;;;;;;;;;5099426;28;20129;-77
2023/10/07 02:03:03;;;;;;;14.85;4.43;;;;;;;;;;5082109;28;20054;-78
2023/10/07 02:05:40;;;;;;;14.00;5.18;;;;;;;;;;5068068;28;20060;-78
2023/10/07 02:08:11;;;;;;;16.13;5.70;;;;;;;;;;5065238;28;20446;-78
2023/10/07 02:10:40;;;;;;;15.82;5.47;;;;;;;;;;5073431;28;20105;-79
2023/10/07 02:13:08;;;;;;;21.48;5.55;;;;;;;;;;5076608;28;20052;-79
2023/10/07 02:15:36;;;;;;;23.85;6.25;;;;;;;;;;5077568;28;20407;-78
2023/10/07 02:18:03;;;;;;;17.50;5.35;;;;;;;;;;5075890;28;20126;-79
2023/10/07 02:20:37;;;;;;;15.57;5.28;;;;;;;;;;5066457;28;20127;-78
2023/10/07 02:23:11;;;;;;;14.88;5.70;;;;;;;;;;5079123;28;20399;-78
2023/10/07 02:25:38;;;;;;;24.02;6.03;;;;;;;;;;5077448;28;20045;-78
2023/10/07 02:28:05;;;;;;;17.63;5.70;;;;;;;;;;5080676;28;20048;-78
2023/10/07 02:30:38;;;;;;;14.75;5.50;;;;;;;;;;5075277;28;20056;-78
2023/10/07 02:33:08;;;;;;;24.90;6.70;;;;;;;;;;5080165;28;20453;-79
2023/10/07 02:35:36;;;;;;;22.55;6.13;;;;;;;;;;5067021;28;20051;-78
2023/10/07 02:38:03;;;;;;;19.02;5.68;;;;;;;;;;5064525;28;20049;-78
2023/10/07 02:40:35;;;;;;;15.60;4.90;;;;;;;;;;5087024;28;20086;-78
2023/10/07 02:43:07;;;;;;;24.55;6.45;;;;;;;;;;5075244;28;20052;-79
2023/10/07 02:45:42;;;;;;;17.50;6.28;;;;;;;;;;5103826;28;20048;-78
2023/10/07 02:48:11;;;;;;;17.50;6.32;;;;;;;;;;5051683;28;20450;-79
2023/10/07 02:50:42;;;;;;;16.92;5.80;;;;;;;;;;5076048;28;20052;-79
2023/10/07 02:53:13;;;;;;;17.90;5.63;;;;;;;;;;5063959;28;20504;-78
2023/10/07 02:55:54;;;;;;;18.10;5.68;;;;;;;;;;5058966;28;20089;-78
2023/10/07 02:58:36;;;;;;;20.25;5.88;;;;;;;;;;5080595;28;20472;-79
2023/10/07 03:01:13;;;;;;;20.13;5.55;;;;;;;;;;5071604;28;20875;-79
2023/10/07 03:03:40;;;;;;;21.88;6.20;;;;;;;;;;5067354;28;20049;-78
2023/10/07 03:06:07;;;;;;;25.02;5.75;;;;;;;;;;5074642;28;20064;-78
2023/10/07 03:09:00;;;;;;;20.25;5.85;;;;;;;;;;5077580;28;20554;-78
2023/10/07 03:11:35;;;;;;;21.15;5.43;;;;;;;;;;5070362;28;20048;-79
2023/10/07 03:14:03;;;;;;;22.73;5.57;;;;;;;;;;5071140;28;20044;-79
2023/10/07 03:16:29;;;;;;;15.75;5.65;;;;;;;;;;5066812;28;20400;-79
2023/10/07 03:19:02;;;;;;;20.85;6.45;;;;;;;;;;5068165;28;20115;-79
2023/10/07 03:24:13;;;;;;;22.17;5.93;;;;;;;;;;5080621;28;20048;-79
2023/10/07 03:26:45;;;;;;;16.85;5.93;;;;;;;;;;5078262;28;20124;-79
2023/10/07 03:29:27;;;;;;;16.17;5.50;;;;;;;;;;5074318;28;20048;-79
2023/10/07 03:31:54;;;;;;;21.30;5.53;;;;;;;;;;5080235;28;20475;-79
2023/10/07 03:34:20;;;;;;;24.00;6.15;;;;;;;;;;5067883;28;21147;-79
2023/10/07 03:37:14;;;;;;;19.60;5.68;;;;;;;;;;5069719;28;20120;-79
2023/10/07 03:42:16;;;;;;;26.10;5.60;;;;;;;;;;5071220;28;20049;-79
2023/10/07 03:44:42;;;;;;;17.58;5.57;;;;;;;;;;5074816;28;20153;-77
2023/10/07 03:47:10;;;;;;;16.90;5.20;;;;;;;;;;5071142;28;20153;-78
2023/10/07 03:49:39;;;;;;;16.98;5.68;;;;;;;;;;5069730;28;20074;-78
2023/10/07 03:52:19;;;;;;;19.20;5.47;;;;;;;;;;5072160;28;20044;-78
2023/10/07 03:54:46;;;;;;;18.30;5.75;;;;;;;;;;5062070;28;20099;-79
2023/10/07 03:57:12;;;;;;;20.05;5.95;;;;;;;;;;5067121;28;20044;-78
2023/10/07 03:59:38;;;;;;;16.38;5.53;;;;;;;;;;5069160;28;20132;-79
2023/10/07 04:02:29;;;;;;;20.45;5.50;;;;;;;;;;5079685;28;20040;-79
2023/10/07 04:05:00;;;;;;;23.05;5.55;;;;;;;;;;5061060;28;20048;-78
2023/10/07 04:07:27;;;;;;;17.42;5.40;;;;;;;;;;5087086;28;20060;-78
2023/10/07 04:09:53;;;;;;;14.73;5.05;;;;;;;;;;5090535;28;20185;-78
2023/10/07 04:12:22;;;;;;;18.13;5.40;;;;;;;;;;5099373;28;20399;-79
2023/10/07 04:14:52;;;;;;;14.52;5.43;;;;;;;;;;5074266;28;20052;-78
2023/10/07 04:17:18;;;;;;;18.20;5.50;;;;;;;;;;5098406;28;20055;-78
2023/10/07 04:19:53;;;;;;;15.73;5.38;;;;;;;;;;5101067;28;20039;-78
2023/10/07 04:22:19;;;;;;;14.57;4.10;;;;;;;;;;5072360;28;20116;-78
2023/10/07 04:24:45;;;;;;;17.10;5.38;;;;;;;;;;5106411;28;20460;-78
2023/10/07 04:27:19;;;;;;;14.43;5.32;;;;;;;;;;5099943;28;20491;-78
2023/10/07 04:29:51;;;;;;;15.43;4.65;;;;;;;;;;5092308;28;20044;-79
2023/10/07 04:32:21;;;;;;;16.88;4.97;;;;;;;;;;5068593;28;20048;-78
2023/10/07 04:37:47;;;;;;;14.88;4.85;;;;;;;;;;5069193;28;20191;-79
2023/10/07 04:45:37;;;;;;;15.70;5.45;;;;;;;;;;5072445;28;20040;-78
2023/10/07 04:48:31;;;;;;;16.63;5.35;;;;;;;;;;5079636;28;20400;-79
2023/10/07 04:51:03;;;;;;;20.52;5.72;;;;;;;;;;5073705;28;20054;-79
2023/10/07 04:53:38;;;;;;;18.08;5.05;;;;;;;;;;5081449;28;20509;-78
2023/10/07 04:56:08;;;;;;;17.38;4.68;;;;;;;;;;5077365;28;20047;-78
2023/10/07 04:58:34;;;;;;;17.20;4.97;;;;;;;;;;5104309;28;20048;-78
2023/10/07 05:01:22;;;;;;;18.50;5.18;;;;;;;;;;5078036;28;20181;-78
2023/10/07 05:03:51;;;;;;;16.52;4.80;;;;;;;;;;5074481;28;20063;-78
2023/10/07 05:06:18;;;;;;;13.05;4.05;;;;;;;;;;5069839;28;20116;-78
2023/10/07 05:08:45;;;;;;;24.02;5.30;;;;;;;;;;5064790;28;22152;-78
2023/10/07 05:11:17;;;;;;;19.80;5.22;;;;;;;;;;5076101;28;20399;-78
2023/10/07 05:13:44;;;;;;;17.45;4.70;;;;;;;;;;5068650;28;20174;-79
2023/10/07 05:16:11;;;;;;;21.98;5.22;;;;;;;;;;5074604;28;20044;-78
2023/10/07 05:18:38;;;;;;;17.05;5.18;;;;;;;;;;5086229;28;20114;-78
2023/10/07 05:21:04;;;;;;;15.98;4.88;;;;;;;;;;5092190;28;20399;-78
2023/10/07 05:23:31;;;;;;;19.55;5.22;;;;;;;;;;5096043;28;20175;-78
2023/10/07 05:26:03;;;;;;;20.85;5.50;;;;;;;;;;5088728;28;20040;-78
2023/10/07 05:28:30;;;;;;;20.92;5.32;;;;;;;;;;5082315;28;20071;-79
2023/10/07 05:30:57;;;;;;;20.77;5.07;;;;;;;;;;5080835;28;20051;-79
2023/10/07 05:33:27;;;;;;;24.58;5.95;;;;;;;;;;5096698;27;20055;-78
2023/10/07 05:36:00;;;;;;;23.35;5.80;;;;;;;;;;5099852;27;20682;-79
2023/10/07 05:38:26;;;;;;;;;;;;;;;;;;5085894;28;21719;-78
2023/10/07 05:40:52;;;;;;;22.13;5.53;;;;;;;;;;5097020;28;20427;-79
2023/10/07 05:43:18;;;;;;;17.10;5.35;;;;;;;;;;5078059;28;20068;-79
2023/10/07 05:45:45;;;;;;;14.30;5.32;;;;;;;;;;5082506;28;20051;-78
2023/10/07 05:48:11;;;;;;;17.38;5.85;;;;;;;;;;5086140;28;20048;-79
2023/10/07 05:50:40;;;;;;;19.58;6.30;;;;;;;;;;5076356;28;20055;-78
2023/10/07 05:53:06;;;;;;;19.75;5.57;;;;;;;;;;5055331;28;20053;-78
2023/10/07 05:55:36;;;;;;;16.70;5.53;;;;;;;;;;5074128;28;20127;-78
2023/10/07 05:58:02;;;;;;;17.42;5.55;;;;;;;;;;5074959;28;20048;-79
2023/10/07 06:00:31;;;;;;;21.05;6.38;;;;;;;;;;5091117;28;20044;-78
2023/10/07 06:02:59;;;;;;;19.73;5.65;;;;;;;;;;5079867;28;20040;-79
2023/10/07 06:05:27;;;;;;;22.88;6.18;;;;;;;;;;5073006;28;20048;-78
2023/10/07 06:07:59;;;;;;;24.20;6.43;;;;;;;;;;5072328;28;20120;-78
2023/10/07 06:10:26;;;;;;;16.67;4.82;;;;;;;;;;5072847;28;20051;-79
2023/10/07 06:12:55;;;;;;;21.05;5.40;;;;;;;;;;5056648;28;20056;-79
2023/10/07 06:15:23;;;;;;;13.93;4.43;;;;;;;;;;5069827;28;20044;-78
2023/10/07 06:17:50;;;;;;;16.67;5.57;;;;;;;;;;5065625;28;21601;-78
2023/10/07 06:20:16;;;;;;;23.67;6.35;;;;;;;;;;5093120;28;20112;-78
2023/10/07 06:22:45;;;;;;;20.77;5.53;;;;;;;;;;5070197;28;20047;-78
2023/10/07 06:25:17;;;;;;;18.90;5.70;;;;;;;;;;5105776;28;20048;-78
2023/10/07 06:27:44;;;;;;;14.38;4.80;;;;;;;;;;5086577;28;20044;-79
2023/10/07 06:30:21;;;;;;;20.73;6.15;;;;;;;;;;5088311;28;20056;-78
2023/10/07 06:32:57;;;;;;;20.58;5.90;;;;;;;;;;5078555;28;20055;-79
2023/10/07 06:35:25;;;;;;;20.65;5.68;;;;;;;;;;5087993;28;20044;-78
2023/10/07 06:37:52;;;;;;;20.00;5.55;;;;;;;;;;5084323;28;20452;-78
2023/10/07 06:40:31;;;;;;;23.50;6.47;;;;;;;;;;5107668;28;20492;-78
2023/10/07 06:43:01;;;;;;;25.60;6.30;;;;;;;;;;5099993;27;20080;-78
2023/10/07 06:45:39;;;;;;;20.92;6.00;;;;;;;;;;5073315;28;20044;-78
2023/10/07 06:48:08;;;;;;;21.00;6.00;;;;;;;;;;5073740;28;20491;-79
2023/10/07 06:50:34;;;;;;;21.17;5.88;;;;;;;;;;5097045;28;20047;-78
2023/10/07 06:53:01;;;;;;;19.50;5.72;;;;;;;;;;5073543;28;20056;-79
2023/10/07 06:55:27;;;;;;;17.02;5.68;;;;;;;;;;5082502;28;20056;-79
2023/10/07 06:57:56;;;;;;;16.75;6.05;;;;;;;;;;5105319;28;20058;-79
2023/10/07 07:00:24;;;;;;;17.73;5.93;;;;;;;;;;5067614;28;20039;-79
2023/10/07 07:02:57;;;;;;;14.27;5.80;;;;;;;;;;5076056;28;20044;-78
2023/10/07 07:05:23;;;;;;;;;;;;;;;;;;5073485;28;20056;-78
2023/10/07 07:07:52;;;;;;;20.60;5.70;;;;;;;;;;5064205;28;20011;-78
2023/10/07 07:10:27;;;;;;;18.95;4.97;;;;;;;;;;5072230;28;20366;-79
2023/10/07 07:12:58;;;;;;;15.43;5.90;;;;;;;;;;5070083;28;20053;-78
2023/10/07 07:15:28;;;;;;;17.92;5.88;;;;;;;;;;5075420;28;20419;-78
2023/10/07 07:20:49;;;;;;;20.55;6.18;;;;;;;;;;5049481;28;20055;-78
2023/10/07 07:23:16;;;;;;;16.05;5.35;;;;;;;;;;5071656;28;20048;-78
2023/10/07 07:25:53;;;;;;;21.35;6.88;;;;;;;;;;5070245;28;20468;-79
2023/10/07 07:28:19;;;;;;;20.98;5.88;;;;;;;;;;5069373;28;20422;-78
2023/10/07 07:30:45;;;;;;;13.23;5.68;;;;;;;;;;5078461;28;20036;-79
2023/10/07 07:33:15;;;;;;;16.95;5.93;;;;;;;;;;5065439;28;20063;-78
2023/10/07 07:35:51;;;;;;;17.63;5.38;;;;;;;;;;5070862;28;20055;-78
2023/10/07 07:40:49;;;;;;;15.90;5.55;;;;;;;;;;5069845;28;20091;-78
2023/10/07 07:43:17;;;;;;;19.73;5.95;;;;;;;;;;5063431;28;20760;-77
2023/10/07 07:45:46;;;;;;;17.50;5.95;;;;;;;;;;5064205;28;20530;-78
2023/10/07 07:48:14;;;;;;;16.35;5.78;;;;;;;;;;5100463;28;20048;-78
2023/10/07 07:50:41;;;;;;;13.75;5.30;;;;;;;;;;5070384;28;20379;-78
2023/10/07 07:53:07;;;;;;;19.42;5.50;;;;;;;;;;5075936;28;20052;-77
2023/10/07 07:55:37;;;;;;;16.83;5.80;;;;;;;;;;5093514;28;20055;-78
2023/10/07 07:58:04;;;;;;;19.35;5.80;;;;;;;;;;5068035;28;20446;-78
2023/10/07 08:00:31;;;;;;;16.63;5.55;;;;;;;;;;5080800;28;20054;-78
2023/10/07 08:03:00;;;;;;;18.98;5.78;;;;;;;;;;5084013;28;20048;-78
2023/10/07 08:05:28;;;;;;;22.98;6.55;;;;;;;;;;5078383;28;20564;-74
2023/10/07 08:07:55;;;;;;;21.00;5.90;;;;;;;;;;5081489;28;20160;-78
2023/10/07 08:10:22;;;;;;;20.60;6.55;;;;;;;;;;5082758;28;20633;-76
2023/10/07 08:12:50;;;;;;;17.00;5.97;;;;;;;;;;5069101;28;20074;-75
2023/10/07 08:15:23;;;;;;;16.77;5.38;;;;;;;;;;5102056;28;20040;-78
2023/10/07 08:17:51;;;;;;;24.27;7.03;;;;;;;;;;5071085;28;20051;-78
2023/10/07 08:20:23;;;;;;;17.08;5.93;;;;;;;;;;5072503;28;20416;-78
2023/10/07 08:22:52;;;;;;;17.42;5.88;;;;;;;;;;5072725;28;20403;-77
2023/10/07 08:28:18;;;;;;;16.88;6.20;;;;;;;;;;5070518;28;20083;-78
2023/10/07 08:30:47;;;;;;;14.60;5.75;;;;;;;;;;5085549;28;20043;-81
2023/10/07 08:33:22;;;;;;;21.38;6.38;;;;;;;;;;5063472;28;20051;-78
2023/10/07 08:35:49;;;;;;;14.98;5.55;;;;;;;;;;5085520;28;20049;-78
2023/10/07 08:38:37;;;;;;;20.92;6.75;;;;;;;;;;5068879;28;20044;-77
2023/10/07 08:41:04;;;;;;;20.23;5.78;;;;;;;;;;5088528;28;20513;-78
2023/10/07 08:43:43;;;;;;;17.55;6.13;;;;;;;;;;5074150;28;20039;-77
2023/10/07 08:46:12;;;;;;;19.50;6.38;;;;;;;;;;5080305;28;20089;-78
2023/10/07 08:48:38;;;;;;;16.83;5.68;;;;;;;;;;5087290;28;20391;-78
2023/10/07 08:51:10;;;;;;;20.50;6.97;;;;;;;;;;5066461;28;20052;-78
2023/10/07 08:53:37;;;;;;;43.17;26.73;;;;;;;;;;5070088;28;20075;-77
2023/10/07 08:56:09;;;;;;;13.68;5.80;;;;;;;;;;5090360;28;20079;-78
2023/10/07 08:58:39;;;;;;;21.58;6.30;;;;;;;;;;5087939;28;20404;-78
2023/10/07 09:01:07;;;;;;;16.55;5.28;;;;;;;;;;5074277;28;20101;-78
2023/10/07 09:03:39;;;;;;;18.67;6.55;;;;;;;;;;5069528;28;20044;-78
2023/10/07 09:06:08;;;;;;;20.10;6.60;;;;;;;;;;5090540;28;20444;-78
2023/10/07 09:08:35;;;;;;;25.90;6.22;;;;;;;;;;5079896;28;20044;-78
2023/10/07 09:11:06;;;;;;;16.35;6.03;;;;;;;;;;5072153;28;20044;-78
2023/10/07 09:13:33;;;;;;;16.30;5.90;;;;;;;;;;5087177;28;20097;-78
2023/10/07 09:15:59;;;;;;;19.23;7.22;;;;;;;;;;5070606;28;20071;-78
2023/10/07 09:18:31;;;;;;;13.63;5.10;;;;;;;;;;5087010;28;20040;-78
2023/10/07 09:20:57;;;;;;;18.33;6.55;;;;;;;;;;5086198;28;20548;-78
2023/10/07 09:23:33;;;;;;;18.70;5.80;;;;;;;;;;5067110;28;20094;-78
2023/10/07 09:26:16;;;;;;;17.08;5.85;;;;;;;;;;5071048;28;20064;-78
2023/10/07 09:28:46;;;;;;;19.15;5.65;;;;;;;;;;5085327;28;20036;-78
2023/10/07 09:31:15;;;;;;;14.85;5.63;;;;;;;;;;5086824;28;20410;-78
2023/10/07 09:33:42;;;;;;;15.95;6.53;;;;;;;;;;5064512;28;20475;-78
2023/10/07 09:39:16;;;;;;;18.55;6.32;;;;;;;;;;5067056;28;20055;-78
2023/10/07 09:41:44;;;;;;;15.68;5.63;;;;;;;;;;5070219;28;20066;-77
2023/10/07 09:44:37;;;;;;;19.90;6.32;;;;;;;;;;5072015;28;20082;-78
2023/10/07 09:47:03;;;;;;;19.20;6.07;;;;;;;;;;5062302;28;20068;-78
2023/10/07 09:49:30;;;;;;;19.05;6.55;;;;;;;;;;5087693;28;20403;-78
2023/10/07 09:52:16;;;;;;;20.70;6.65;;;;;;;;;;5082752;28;20051;-78
2023/10/07 09:55:07;;;;;;;20.52;5.57;;;;;;;;;;5069127;28;20043;-77
2023/10/07 09:57:55;;;;;;;17.75;5.88;;;;;;;;;;5065562;28;20119;-78
2023/10/07 10:00:38;;;;;;;17.48;5.93;;;;;;;;;;5085303;28;20051;-76
2023/10/07 10:03:12;;;;;;;19.65;6.25;;;;;;;;;;5088110;28;20047;-76
2023/10/07 10:05:57;;;;;;;16.08;6.55;;;;;;;;;;5079339;28;20052;-76
2023/10/07 10:08:29;;;;;;;16.98;6.18;;;;;;;;;;5091062;28;20139;-77
2023/10/07 10:10:58;;;;;;;13.55;6.53;;;;;;;;;;5085965;28;20158;-78
2023/10/07 10:16:13;;;;;;;18.17;7.22;;;;;;;;;;5073004;28;20036;-77
2023/10/07 10:19:10;;;;;;;18.33;6.30;;;;;;;;;;5071465;28;20047;-77
2023/10/07 10:21:37;;;;;;;17.23;5.45;;;;;;;;;;5094651;28;20113;-77
2023/10/07 10:24:03;;;;;;;15.95;6.10;;;;;;;;;;5072603;28;20052;-77
2023/10/07 10:26:33;;;;;;;18.63;6.18;;;;;;;;;;5071789;28;20059;-78
2023/10/07 10:29:15;;;;;;;16.33;6.30;;;;;;;;;;5087158;28;20044;-77
2023/10/07 10:31:48;;;;;;;16.50;5.50;;;;;;;;;;5073431;28;20531;-77
2023/10/07 10:34:14;;;;;;;15.63;5.35;;;;;;;;;;5072550;28;20298;-79
2023/10/07 10:36:43;;;;;;;18.17;5.70;;;;;;;;;;5083742;28;20778;-80
2023/10/07 10:39:18;;;;;;;17.83;6.10;;;;;;;;;;5069603;28;20035;-79
2023/10/07 10:41:44;;;;;;;16.58;6.05;;;;;;;;;;5070000;28;20044;-80
2023/10/07 10:44:11;;;;;;;12.85;5.78;;;;;;;;;;5069996;28;20040;-79
2023/10/07 10:46:55;;;;;;;18.20;6.78;;;;;;;;;;5065169;28;20141;-80
2023/10/07 10:49:22;;;;;;;21.55;6.70;;;;;;;;;;5071539;28;20048;-80
2023/10/07 10:51:50;;;;;;;21.00;7.07;;;;;;;;;;5072050;28;20059;-80
2023/10/07 10:54:17;;;;;;;16.13;5.95;;;;;;;;;;5089195;28;20044;-80
2023/10/07 10:56:47;;;;;;;16.73;5.78;;;;;;;;;;5067624;28;20440;-80
2023/10/07 10:59:14;;;;;;;17.45;5.90;;;;;;;;;;5072353;28;20601;-79
2023/10/07 11:01:44;;;;;;;14.30;5.47;;;;;;;;;;5068959;28;20048;-79
2023/10/07 11:04:12;;;;;;;17.52;6.32;;;;;;;;;;5085739;28;20048;-79
2023/10/07 11:06:38;;;;;;;17.17;5.85;;;;;;;;;;5079306;28;20096;-79
2023/10/07 11:09:04;;;;;;;13.68;6.05;;;;;;;;;;5069164;28;20051;-81
2023/10/07 11:11:35;;;;;;;14.57;5.95;;;;;;;;;;5067975;28;22521;-79
2023/10/07 11:14:05;;;;;;;16.83;5.93;;;;;;;;;;5071660;28;20055;-79
2023/10/07 11:16:32;;;;;;;20.27;6.60;;;;;;;;;;5071865;28;20051;-79
2023/10/07 11:18:58;;;;;;;19.77;7.15;;;;;;;;;;5067984;28;20052;-80
2023/10/07 11:21:24;;;;;;;17.15;5.85;;;;;;;;;;5067029;28;20051;-79
2023/10/07 11:23:54;;;;;;;16.95;5.97;;;;;;;;;;5068652;28;20572;-79
2023/10/07 11:26:23;;;;;;;14.80;5.22;;;;;;;;;;5073317;28;20391;-76
2023/10/07 11:28:50;;;;;;;16.45;6.00;;;;;;;;;;5090284;28;20395;-76
2023/10/07 11:31:27;;;;;;;15.40;5.80;;;;;;;;;;5063630;28;20051;-77
2023/10/07 11:33:53;;;;;;;12.68;5.15;;;;;;;;;;5067588;28;20054;-78
2023/10/07 11:36:19;;;;;;;19.50;6.68;;;;;;;;;;5067527;28;20040;-77
2023/10/07 11:38:45;;;;;;;17.45;5.90;;;;;;;;;;5070225;28;20081;-77
2023/10/07 11:41:11;;;;;;;17.48;6.43;;;;;;;;;;5091092;28;20048;-78
2023/10/07 11:43:43;;;;;;;17.00;6.85;;;;;;;;;;5065873;28;20086;-78
2023/10/07 11:46:13;;;;;;;16.25;5.82;;;;;;;;;;5083938;28;20051;-77
2023/10/07 11:48:41;;;;;;;16.50;6.50;;;;;;;;;;5069591;28;20111;-78
2023/10/07 11:51:07;;;;;;;15.05;5.80;;;;;;;;;;5071447;28;20074;-77
2023/10/07 11:53:34;;;;;;;15.48;5.68;;;;;;;;;;5070410;28;20052;-77
2023/10/07 11:56:05;;;;;;;14.68;6.03;;;;;;;;;;5065664;28;20404;-77
2023/10/07 11:58:32;;;;;;;17.55;5.88;;;;;;;;;;5065385;28;20056;-77
2023/10/07 12:01:02;;;;;;;14.93;5.97;;;;;;;;;;5091748;28;20446;-77
2023/10/07 12:03:30;;;;;;;18.33;6.15;;;;;;;;;;5070254;28;20048;-81
2023/10/07 12:05:59;;;;;;;15.23;5.80;;;;;;;;;;5068638;28;20548;-78
2023/10/07 12:08:26;;;;;;;15.68;5.95;;;;;;;;;;5090002;28;20044;-79
2023/10/07 12:10:52;;;;;;;19.50;6.32;;;;;;;;;;5069203;28;20066;-79
2023/10/07 12:13:19;;;;;;;16.92;6.72;;;;;;;;;;5066411;28;20059;-78
2023/10/07 12:15:45;;;;;;;17.48;6.35;;;;;;;;;;5090480;28;20052;-79
2023/10/07 12:18:16;;;;;;;16.08;6.13;;;;;;;;;;5081025;28;20082;-78
2023/10/07 12:20:42;;;;;;;14.07;5.35;;;;;;;;;;5073606;28;20040;-79
2023/10/07 12:23:08;;;;;;;13.68;5.95;;;;;;;;;;5089856;28;20063;-79
2023/10/07 12:25:38;;;;;;;16.42;5.68;;;;;;;;;;5068531;28;20076;-78
2023/10/07 12:28:08;;;;;;;18.40;6.40;;;;;;;;;;5068524;28;20122;-78
2023/10/07 12:30:34;;;;;;;15.23;5.95;;;;;;;;;;5087568;28;20099;-76
2023/10/07 12:33:01;;;;;;;14.80;5.90;;;;;;;;;;5069527;28;20192;-76
2023/10/07 12:35:30;;;;;;;14.68;5.65;;;;;;;;;;5068144;28;20101;-77
2023/10/07 12:37:58;;;;;;;18.23;6.45;;;;;;;;;;5105424;27;20380;-76
2023/10/07 12:40:24;;;;;;;15.57;6.20;;;;;;;;;;5072710;28;20040;-76
2023/10/07 12:42:50;;;;;;;13.30;5.72;;;;;;;;;;5069184;28;20056;-76
2023/10/07 12:45:16;;;;;;;19.73;7.30;;;;;;;;;;5067791;28;20036;-76
2023/10/07 12:47:43;;;;;;;21.75;6.72;;;;;;;;;;5072769;28;20062;-76
2023/10/07 12:50:28;;;;;;;21.58;7.20;;;;;;;;;;5069164;28;20487;-76
2023/10/07 12:52:55;;;;;;;18.13;7.07;;;;;;;;;;5085812;28;20084;-76
2023/10/07 12:55:21;;;;;;;15.10;6.07;;;;;;;;;;5071088;28;20040;-76
2023/10/07 12:57:51;;;;;;;16.38;6.95;;;;;;;;;;5073916;28;20499;-77
2023/10/07 13:00:27;;;;;;;19.88;6.45;;;;;;;;;;5070080;28;20036;-76
2023/10/07 13:02:53;;;;;;;16.80;6.18;;;;;;;;;;5067767;28;20052;-75
2023/10/07 13:05:20;;;;;;;18.38;6.95;;;;;;;;;;5068330;28;20380;-76
2023/10/07 13:07:56;;;;;;;16.98;6.80;;;;;;;;;;5068007;28;20407;-76
2023/10/07 13:10:22;;;;;;;14.60;6.28;;;;;;;;;;5099201;27;20181;-76
2023/10/07 13:12:55;;;;;;;20.23;7.72;;;;;;;;;;5089563;28;20104;-76
2023/10/07 13:15:30;;;;;;;14.18;6.15;;;;;;;;;;5067811;28;20272;-76
2023/10/07 13:18:03;;;;;;;16.73;6.82;;;;;;;;;;5069497;28;20056;-76
2023/10/07 13:20:30;;;;;;;20.77;7.37;;;;;;;;;;5089437;28;20035;-76
2023/10/07 13:23:05;;;;;;;21.77;6.82;;;;;;;;;;5066822;28;20319;-76
2023/10/07 13:25:33;;;;;;;17.63;6.10;;;;;;;;;;5069653;28;20064;-76
2023/10/07 13:28:02;;;;;;;16.33;6.40;;;;;;;;;;5070658;28;20436;-75
2023/10/07 13:30:30;;;;;;;20.88;6.85;;;;;;;;;;5068772;28;20040;-76
2023/10/07 13:32:56;;;;;;;18.83;6.50;;;;;;;;;;5070411;28;20079;-76
2023/10/07 13:35:24;;;;;;;18.55;7.00;;;;;;;;;;5066733;28;20060;-75
2023/10/07 13:37:51;;;;;;;12.90;5.63;;;;;;;;;;5089439;28;20048;-76
2023/10/07 13:40:18;;;;;;;16.13;6.80;;;;;;;;;;5069000;28;20453;-77
2023/10/07 13:42:47;;;;;;;18.15;7.93;;;;;;;;;;5066815;28;20058;-77
2023/10/07 13:45:17;;;;;;;19.45;7.22;;;;;;;;;;5070472;28;20103;-77
2023/10/07 13:47:44;;;;;;;13.57;6.03;;;;;;;;;;5071822;28;20075;-77
2023/10/07 13:50:13;;;;;;;16.38;6.70;;;;;;;;;;5087575;28;20054;-77
2023/10/07 13:52:50;;;;;;;16.50;6.45;;;;;;;;;;5065191;28;20090;-77
2023/10/07 13:55:22;;;;;;;16.33;7.18;;;;;;;;;;5100445;28;20048;-77
2023/10/07 13:57:55;;;;;;;19.27;7.53;;;;;;;;;;5066180;28;20059;-77
2023/10/07 14:00:29;;;;;;;18.10;7.18;;;;;;;;;;5070684;28;20466;-77
2023/10/07 14:02:56;;;;;;;16.33;6.40;;;;;;;;;;5087743;28;20040;-77
2023/10/07 14:05:24;;;;;;;18.58;7.40;;;;;;;;;;5088935;28;20062;-76
2023/10/07 14:07:51;;;;;;;20.75;10.30;;;;;;;;;;5069110;28;20064;-77
2023/10/07 14:10:21;;;;;;;14.32;6.78;;;;;;;;;;5083071;28;20052;-77
2023/10/07 14:12:47;;;;;;;16.33;6.70;;;;;;;;;;5093439;28;20044;-76
2023/10/07 14:15:15;;;;;;;21.42;7.75;;;;;;;;;;5068251;28;20036;-76
2023/10/07 14:17:41;;;;;;;19.17;7.47;;;;;;;;;;5101512;28;20395;-79
2023/10/07 14:20:13;;;;;;;18.98;7.60;;;;;;;;;;5063574;28;20128;-75
2023/10/07 14:22:40;;;;;;;19.50;7.20;;;;;;;;;;5082001;28;20055;-75
2023/10/07 14:25:06;;;;;;;23.20;7.20;;;;;;;;;;5065035;28;20560;-75
2023/10/07 14:27:32;;;;;;;20.38;6.88;;;;;;;;;;5060967;28;20083;-77
2023/10/07 14:29:58;;;;;;;17.10;7.70;;;;;;;;;;5088917;28;20059;-77
2023/10/07 14:32:25;;;;;;;15.15;6.38;;;;;;;;;;5056978;28;20049;-77
2023/10/07 14:34:51;;;;;;;18.88;8.52;;;;;;;;;;5052684;28;20098;-77
2023/10/07 14:37:17;;;;;;;18.75;7.18;;;;;;;;;;5061461;28;20051;-77
2023/10/07 14:39:43;;;;;;;17.25;7.75;;;;;;;;;;5086821;28;20067;-76
2023/10/07 14:42:09;;;;;;;16.05;7.18;;;;;;;;;;5073211;28;20131;-76
2023/10/07 14:44:35;;;;;;;14.68;7.22;;;;;;;;;;5070660;28;20044;-76
2023/10/07 14:47:04;;;;;;;16.70;7.57;;;;;;;;;;5083905;28;20135;-77
2023/10/07 14:49:31;;;;;;;17.30;6.97;;;;;;;;;;5092921;28;20079;-76
2023/10/07 14:51:57;;;;;;;14.45;6.53;;;;;;;;;;5072828;28;20040;-76
2023/10/07 14:54:23;;;;;;;19.98;7.50;;;;;;;;;;5073623;28;20127;-76
2023/10/07 14:56:50;;;;;;;13.07;6.20;;;;;;;;;;5073819;28;20072;-77
2023/10/07 14:59:17;;;;;;;22.13;7.45;;;;;;;;;;5085823;28;20044;-78
2023/10/07 15:01:43;;;;;;;17.08;6.88;;;;;;;;;;5071011;28;20051;-78
2023/10/07 15:04:10;;;;;;;24.02;7.82;;;;;;;;;;5070030;28;20127;-78
2023/10/07 15:06:36;;;;;;;15.45;7.00;;;;;;;;;;5090575;28;20040;-78
2023/10/07 15:09:02;;;;;;;16.83;6.50;;;;;;;;;;5066497;28;20143;-78
2023/10/07 15:11:29;;;;;;;16.55;7.55;;;;;;;;;;5107006;27;20043;-78
2023/10/07 15:13:55;;;;;;;13.00;6.15;;;;;;;;;;5090703;28;20063;-78
2023/10/07 15:16:21;;;;;;;13.10;6.15;;;;;;;;;;5088353;28;20479;-78
2023/10/07 15:18:52;;;;;;;15.48;7.15;;;;;;;;;;5071167;28;20052;-78
2023/10/07 15:21:21;;;;;;;16.20;6.45;;;;;;;;;;5071203;28;20051;-80